createdAt,value
2022-09-02T00:00:14.108Z,17.32
2022-09-02T00:00:50.971Z,17.25
2022-09-02T00:01:24.883Z,17.22
2022-09-02T00:01:57.631Z,17.29
2022-09-02T00:02:31.329Z,17.36
2022-09-02T00:03:05.044Z,17.37
2022-09-02T00:03:37.320Z,17.29
2022-09-02T00:04:13.897Z,17.32
2022-09-02T00:04:45.817Z,17.32
2022-09-02T00:05:20.184Z,17.16
2022-09-02T00:05:52.470Z,17.17
2022-09-02T00:06:24.945Z,17.18
2022-09-02T00:06:56.993Z,17.20
2022-09-02T00:07:28.927Z,17.27
2022-09-02T00:08:00.879Z,17.24
2022-09-02T00:08:33.478Z,17.20
2022-09-02T00:09:07.951Z,17.15
2022-09-02T00:09:40.613Z,17.19
2022-09-02T00:10:12.788Z,17.19
2022-09-02T00:10:46.162Z,17.25
2022-09-02T00:11:22.429Z,17.26
2022-09-02T00:11:55.877Z,17.25
2022-09-02T00:12:28.246Z,17.18
2022-09-02T00:13:00.372Z,17.20
2022-09-02T00:13:34.888Z,17.21
2022-09-02T00:14:12.669Z,17.30
2022-09-02T00:14:44.572Z,17.28
2022-09-02T00:15:16.648Z,17.25
2022-09-02T00:15:49.714Z,17.22
2022-09-02T00:16:23.893Z,17.13
2022-09-02T00:16:56.144Z,17.18
2022-09-02T00:17:28.206Z,17.16
2022-09-02T00:18:01.723Z,17.21
2022-09-02T00:18:34.096Z,17.15
2022-09-02T00:19:08.130Z,17.23
2022-09-02T00:19:40.208Z,17.27
2022-09-02T00:20:12.112Z,17.27
2022-09-02T00:20:45.985Z,17.30
2022-09-02T00:21:19.165Z,17.29
2022-09-02T00:21:53.133Z,17.34
2022-09-02T00:22:25.138Z,17.23
2022-09-02T00:22:57.310Z,17.22
2022-09-02T00:23:29.458Z,17.24
2022-09-02T00:24:05.768Z,17.22
2022-09-02T00:24:38.530Z,17.19
2022-09-02T00:25:10.871Z,17.16
2022-09-02T00:25:44.890Z,17.15
2022-09-02T00:26:17.234Z,17.18
2022-09-02T00:26:49.760Z,17.16
2022-09-02T00:27:21.977Z,17.12
2022-09-02T00:27:54.054Z,17.17
2022-09-02T00:28:26.231Z,17.18
2022-09-02T00:28:58.159Z,17.15
2022-09-02T00:29:30.991Z,17.14
2022-09-02T00:30:04.853Z,17.18
2022-09-02T00:30:37.565Z,17.20
2022-09-02T00:31:09.611Z,17.20
2022-09-02T00:31:43.942Z,17.21
2022-09-02T00:32:16.011Z,17.18
2022-09-02T00:32:49.055Z,17.14
2022-09-02T00:33:21.176Z,17.22
2022-09-02T00:33:55.131Z,17.18
2022-09-02T00:34:27.067Z,17.13
2022-09-02T00:35:00.166Z,17.21
2022-09-02T00:35:32.890Z,17.27
2022-09-02T00:36:06.164Z,17.29
2022-09-02T00:36:39.381Z,17.30
2022-09-02T00:37:13.312Z,17.35
2022-09-02T00:37:45.464Z,17.36
2022-09-02T00:38:18.336Z,17.35
2022-09-02T00:38:50.888Z,17.32
2022-09-02T00:39:23.598Z,17.29
2022-09-02T00:39:57.287Z,17.35
2022-09-02T00:40:29.774Z,17.34
2022-09-02T00:41:05.835Z,17.34
2022-09-02T00:41:40.092Z,17.36
2022-09-02T00:42:12.347Z,17.36
2022-09-02T00:42:44.355Z,17.33
2022-09-02T00:43:26.234Z,17.28
2022-09-02T00:44:02.308Z,17.25
2022-09-02T00:44:34.221Z,17.24
2022-09-02T00:45:08.508Z,17.31
2022-09-02T00:45:40.550Z,17.29
2022-09-02T00:46:16.591Z,17.33
2022-09-02T00:46:48.837Z,17.34
2022-09-02T00:47:22.162Z,17.40
2022-09-02T00:47:54.147Z,17.43
2022-09-02T00:48:26.075Z,17.41
2022-09-02T00:49:32.746Z,17.46
2022-09-02T00:50:08.939Z,17.43
2022-09-02T00:50:40.930Z,17.26
2022-09-02T00:51:15.275Z,17.12
2022-09-02T00:52:12.966Z,17.08
2022-09-02T00:52:48.207Z,16.99
2022-09-02T00:53:20.946Z,17.16
2022-09-02T00:53:53.335Z,17.29
2022-09-02T00:54:29.858Z,17.22
2022-09-02T00:55:20.646Z,17.22
2022-09-02T00:55:52.799Z,17.34
2022-09-02T00:56:30.022Z,17.32
2022-09-02T00:57:07.415Z,17.23
2022-09-02T00:57:44.421Z,17.15
2022-09-02T00:58:26.223Z,17.11
2022-09-02T00:59:00.919Z,17.03
2022-09-02T00:59:44.362Z,16.99
2022-09-02T01:00:22.693Z,17.09
2022-09-02T01:00:57.822Z,17.08
2022-09-02T01:01:29.974Z,17.09
2022-09-02T01:02:02.170Z,17.14
2022-09-02T01:02:37.447Z,17.18
2022-09-02T01:03:12.710Z,17.12
2022-09-02T01:03:44.826Z,17.15
2022-09-02T01:04:17.237Z,17.23
2022-09-02T01:04:49.948Z,17.17
2022-09-02T01:05:24.320Z,17.18
2022-09-02T01:05:57.797Z,17.24
2022-09-02T01:06:33.363Z,17.21
2022-09-02T01:07:06.567Z,17.18
2022-09-02T01:07:40.041Z,17.21
2022-09-02T01:08:19.479Z,17.28
2022-09-02T01:09:02.638Z,17.12
2022-09-02T01:09:36.198Z,17.00
2022-09-02T01:10:11.788Z,17.07
2022-09-02T01:10:44.114Z,17.23
2022-09-02T01:11:18.902Z,17.26
2022-09-02T01:11:55.200Z,17.20
2022-09-02T01:12:29.350Z,17.11
2022-09-02T01:13:07.704Z,17.14
2022-09-02T01:13:43.403Z,17.11
2022-09-02T01:14:16.654Z,17.14
2022-09-02T01:14:48.603Z,17.14
2022-09-02T01:15:20.839Z,17.26
2022-09-02T01:15:57.537Z,17.33
2022-09-02T01:16:46.326Z,17.32
2022-09-02T01:17:20.400Z,17.34
2022-09-02T01:17:52.910Z,17.30
2022-09-02T01:18:29.333Z,17.33
2022-09-02T01:19:06.631Z,17.25
2022-09-02T01:19:45.963Z,17.30
2022-09-02T01:20:26.313Z,17.32
2022-09-02T01:21:01.150Z,17.34
2022-09-02T01:21:33.122Z,17.34
2022-09-02T01:22:16.248Z,17.31
2022-09-02T01:22:49.062Z,17.34
2022-09-02T01:23:21.692Z,17.41
2022-09-02T01:23:54.392Z,17.37
2022-09-02T01:24:33.002Z,17.39
2022-09-02T01:25:18.170Z,17.32
2022-09-02T01:25:50.133Z,17.23
2022-09-02T01:26:22.512Z,17.20
2022-09-02T01:26:56.859Z,17.23
2022-09-02T01:27:28.999Z,17.31
2022-09-02T01:28:10.910Z,17.26
2022-09-02T01:28:45.382Z,17.18
2022-09-02T01:29:17.980Z,17.18
2022-09-02T01:29:58.369Z,17.18
2022-09-02T01:30:31.889Z,17.21
2022-09-02T01:31:04.378Z,17.29
2022-09-02T01:31:36.953Z,17.40
2022-09-02T01:32:08.877Z,17.37
2022-09-02T01:32:40.894Z,17.44
2022-09-02T01:33:12.941Z,17.44
2022-09-02T01:33:45.399Z,17.38
2022-09-02T01:34:18.376Z,17.29
2022-09-02T01:34:51.602Z,17.33
2022-09-02T01:35:24.105Z,17.29
2022-09-02T01:35:56.229Z,17.41
2022-09-02T01:36:28.105Z,17.38
2022-09-02T01:37:02.809Z,17.36
2022-09-02T01:37:35.198Z,17.32
2022-09-02T01:38:07.516Z,17.35
2022-09-02T01:38:39.514Z,17.36
2022-09-02T01:39:13.399Z,17.43
2022-09-02T01:39:45.966Z,17.42
2022-09-02T01:40:18.366Z,17.37
2022-09-02T01:40:50.721Z,17.32
2022-09-02T01:41:22.780Z,17.29
2022-09-02T01:41:54.774Z,17.35
2022-09-02T01:42:27.518Z,17.30
2022-09-02T01:43:08.071Z,17.26
2022-09-02T01:43:40.054Z,17.34
2022-09-02T01:44:12.344Z,17.29
2022-09-02T01:44:44.872Z,17.30
2022-09-02T01:45:17.045Z,17.25
2022-09-02T01:45:52.226Z,17.32
2022-09-02T01:46:24.802Z,17.39
2022-09-02T01:46:57.348Z,17.41
2022-09-02T01:47:29.735Z,17.38
2022-09-02T01:48:02.820Z,17.35
2022-09-02T01:48:35.906Z,17.29
2022-09-02T01:49:08.088Z,17.17
2022-09-02T01:49:40.114Z,17.33
2022-09-02T01:50:12.389Z,17.33
2022-09-02T01:50:49.441Z,17.30
2022-09-02T01:51:21.647Z,17.24
2022-09-02T01:51:56.835Z,17.29
2022-09-02T01:52:29.541Z,17.24
2022-09-02T01:53:03.833Z,17.28
2022-09-02T01:53:37.096Z,17.24
2022-09-02T01:54:13.577Z,17.35
2022-09-02T01:54:46.488Z,17.33
2022-09-02T01:55:18.501Z,17.22
2022-09-02T01:55:50.830Z,17.22
2022-09-02T01:56:22.749Z,17.23
2022-09-02T01:56:56.291Z,17.22
2022-09-02T01:57:28.408Z,17.22
2022-09-02T01:58:00.471Z,17.28
2022-09-02T01:58:32.804Z,17.28
2022-09-02T01:59:07.853Z,17.36
2022-09-02T01:59:39.855Z,17.35
2022-09-02T02:00:13.377Z,17.43
2022-09-02T02:00:46.067Z,17.38
2022-09-02T02:01:18.414Z,17.41
2022-09-02T02:01:50.553Z,17.33
2022-09-02T02:02:23.832Z,17.32
2022-09-02T02:02:57.405Z,17.34
2022-09-02T02:03:30.623Z,17.43
2022-09-02T02:04:04.209Z,17.24
2022-09-02T02:04:37.361Z,17.20
2022-09-02T02:05:10.663Z,17.25
2022-09-02T02:05:43.786Z,17.17
2022-09-02T02:06:18.134Z,17.17
2022-09-02T02:06:52.478Z,17.15
2022-09-02T02:07:25.651Z,17.06
2022-09-02T02:07:57.682Z,17.17
2022-09-02T02:08:29.626Z,17.17
2022-09-02T02:09:04.317Z,17.29
2022-09-02T02:09:37.626Z,17.18
2022-09-02T02:10:11.578Z,17.08
2022-09-02T02:10:43.754Z,17.09
2022-09-02T02:11:25.332Z,17.14
2022-09-02T02:11:57.742Z,17.24
2022-09-02T02:12:30.161Z,17.21
2022-09-02T02:13:03.018Z,17.25
2022-09-02T02:13:38.462Z,17.19
2022-09-02T02:14:11.593Z,17.19
2022-09-02T02:14:51.411Z,17.22
2022-09-02T02:15:55.343Z,17.20
2022-09-02T02:16:27.456Z,17.15
2022-09-02T02:16:59.751Z,17.22
2022-09-02T02:17:31.662Z,17.25
2022-09-02T02:18:03.603Z,17.28
2022-09-02T02:18:37.721Z,17.24
2022-09-02T02:19:09.698Z,17.18
2022-09-02T02:19:41.894Z,17.18
2022-09-02T02:20:16.063Z,17.12
2022-09-02T02:20:48.017Z,17.15
2022-09-02T02:21:20.094Z,17.17
2022-09-02T02:21:52.835Z,17.10
2022-09-02T02:22:24.928Z,17.09
2022-09-02T02:22:57.068Z,17.12
2022-09-02T02:23:29.015Z,17.18
2022-09-02T02:24:01.386Z,17.19
2022-09-02T02:24:33.618Z,17.22
2022-09-02T02:25:07.020Z,17.29
2022-09-02T02:25:39.397Z,17.15
2022-09-02T02:26:11.387Z,17.08
2022-09-02T02:26:44.790Z,17.10
2022-09-02T02:27:16.769Z,17.16
2022-09-02T02:27:51.535Z,17.21
2022-09-02T02:28:25.542Z,17.22
2022-09-02T02:28:57.803Z,17.17
2022-09-02T02:29:31.684Z,17.22
2022-09-02T02:30:06.679Z,17.26
2022-09-02T02:30:38.951Z,17.17
2022-09-02T02:31:12.408Z,17.17
2022-09-02T02:31:45.444Z,17.16
2022-09-02T02:32:21.615Z,17.08
2022-09-02T02:32:53.933Z,17.13
2022-09-02T02:33:35.002Z,17.19
2022-09-02T02:34:08.338Z,17.17
2022-09-02T02:34:40.835Z,17.20
2022-09-02T02:35:15.062Z,17.15
2022-09-02T02:35:47.244Z,17.17
2022-09-02T02:36:19.848Z,17.15
2022-09-02T02:36:52.051Z,17.07
2022-09-02T02:37:25.659Z,16.98
2022-09-02T02:37:58.201Z,16.99
2022-09-02T02:38:36.115Z,17.08
2022-09-02T02:39:10.047Z,17.17
2022-09-02T02:39:43.548Z,17.20
2022-09-02T02:40:20.398Z,17.22
2022-09-02T02:40:57.515Z,17.21
2022-09-02T02:41:31.581Z,17.07
2022-09-02T02:42:03.586Z,17.04
2022-09-02T02:42:35.733Z,17.10
2022-09-02T02:43:07.667Z,17.07
2022-09-02T02:43:40.295Z,17.04
2022-09-02T02:44:12.366Z,17.00
2022-09-02T02:44:44.905Z,17.00
2022-09-02T02:45:17.906Z,17.04
2022-09-02T02:45:50.019Z,17.01
2022-09-02T02:46:23.071Z,16.87
2022-09-02T02:46:55.558Z,16.79
2022-09-02T02:47:27.900Z,16.84
2022-09-02T02:47:59.887Z,16.86
2022-09-02T02:48:33.843Z,16.85
2022-09-02T02:49:06.369Z,16.80
2022-09-02T02:49:40.220Z,16.92
2022-09-02T02:50:13.683Z,16.92
2022-09-02T02:50:45.700Z,16.85
2022-09-02T02:51:17.804Z,16.82
2022-09-02T02:51:50.140Z,16.84
2022-09-02T02:52:22.534Z,16.83
2022-09-02T02:52:55.012Z,16.77
2022-09-02T02:53:29.722Z,16.82
2022-09-02T02:54:03.586Z,16.86
2022-09-02T02:54:36.637Z,16.89
2022-09-02T02:55:10.803Z,16.98
2022-09-02T02:55:43.313Z,16.99
2022-09-02T02:56:22.786Z,16.98
2022-09-02T02:56:55.905Z,17.02
2022-09-02T02:57:28.171Z,16.98
2022-09-02T02:58:00.162Z,16.87
2022-09-02T02:58:32.237Z,16.86
2022-09-02T02:59:04.364Z,16.85
2022-09-02T02:59:37.699Z,16.79
2022-09-02T03:00:14.472Z,16.80
2022-09-02T03:00:46.809Z,16.76
2022-09-02T03:01:18.944Z,16.74
2022-09-02T03:01:51.060Z,16.83
2022-09-02T03:02:23.172Z,16.90
2022-09-02T03:03:05.145Z,16.86
2022-09-02T03:03:37.301Z,16.79
2022-09-02T03:04:09.526Z,16.85
2022-09-02T03:04:42.022Z,16.87
2022-09-02T03:05:15.173Z,16.86
2022-09-02T03:05:49.148Z,16.80
2022-09-02T03:06:21.956Z,16.73
2022-09-02T03:06:59.083Z,16.67
2022-09-02T03:07:32.689Z,16.78
2022-09-02T03:08:07.405Z,16.89
2022-09-02T03:08:39.380Z,16.94
2022-09-02T03:09:12.161Z,16.94
2022-09-02T03:09:44.068Z,16.94
2022-09-02T03:10:16.113Z,16.84
2022-09-02T03:10:51.952Z,16.80
2022-09-02T03:11:25.616Z,16.73
2022-09-02T03:11:58.391Z,16.83
2022-09-02T03:12:33.208Z,16.81
2022-09-02T03:13:05.832Z,16.86
2022-09-02T03:13:38.003Z,16.81
2022-09-02T03:14:09.900Z,16.70
2022-09-02T03:14:42.564Z,16.68
2022-09-02T03:15:19.654Z,16.67
2022-09-02T03:15:52.475Z,16.70
2022-09-02T03:16:24.821Z,16.66
2022-09-02T03:16:58.555Z,16.78
2022-09-02T03:17:30.803Z,16.80
2022-09-02T03:18:02.831Z,16.78
2022-09-02T03:18:35.387Z,16.74
2022-09-02T03:19:07.752Z,16.70
2022-09-02T03:19:39.842Z,16.77
2022-09-02T03:20:12.646Z,16.80
2022-09-02T03:20:45.556Z,16.80
2022-09-02T03:21:18.204Z,16.80
2022-09-02T03:21:50.523Z,16.79
2022-09-02T03:22:22.491Z,16.71
2022-09-02T03:22:56.702Z,16.66
2022-09-02T03:23:28.784Z,16.69
2022-09-02T03:24:01.172Z,16.54
2022-09-02T03:24:33.322Z,16.57
2022-09-02T03:25:07.899Z,16.60
2022-09-02T03:25:43.002Z,16.67
2022-09-02T03:26:19.221Z,16.61
2022-09-02T03:26:52.028Z,16.59
2022-09-02T03:27:24.146Z,16.53
2022-09-02T03:27:56.949Z,16.49
2022-09-02T03:28:29.934Z,16.53
2022-09-02T03:29:03.638Z,16.52
2022-09-02T03:29:37.047Z,16.54
2022-09-02T03:30:12.323Z,16.50
2022-09-02T03:30:47.000Z,16.51
2022-09-02T03:31:22.096Z,16.49
2022-09-02T03:31:54.080Z,16.57
2022-09-02T03:32:28.217Z,16.54
2022-09-02T03:33:04.422Z,16.51
2022-09-02T03:33:37.049Z,16.49
2022-09-02T03:34:10.585Z,16.46
2022-09-02T03:34:42.535Z,16.38
2022-09-02T03:35:19.135Z,16.36
2022-09-02T03:35:51.141Z,16.34
2022-09-02T03:36:32.595Z,16.38
2022-09-02T03:37:04.828Z,16.46
2022-09-02T03:37:37.436Z,16.46
2022-09-02T03:38:10.807Z,16.50
2022-09-02T03:38:42.754Z,16.45
2022-09-02T03:39:16.318Z,16.46
2022-09-02T03:39:48.415Z,16.54
2022-09-02T03:40:24.880Z,16.61
2022-09-02T03:40:57.146Z,16.59
2022-09-02T03:41:30.104Z,16.51
2022-09-02T03:42:02.262Z,16.51
2022-09-02T03:42:38.607Z,16.46
2022-09-02T03:43:13.615Z,16.40
2022-09-02T03:43:46.223Z,16.52
2022-09-02T03:44:19.639Z,16.50
2022-09-02T03:44:51.751Z,16.55
2022-09-02T03:45:23.979Z,16.55
2022-09-02T03:45:56.080Z,16.50
2022-09-02T03:46:28.944Z,16.47
2022-09-02T03:47:01.512Z,16.53
2022-09-02T03:47:33.927Z,16.54
2022-09-02T03:48:05.933Z,16.52
2022-09-02T03:48:38.914Z,16.54
2022-09-02T03:49:11.058Z,16.55
2022-09-02T03:49:43.749Z,16.63
2022-09-02T03:50:44.383Z,16.61
2022-09-02T03:51:16.470Z,16.46
2022-09-02T03:51:48.442Z,16.51
2022-09-02T03:52:21.366Z,16.47
2022-09-02T03:52:55.177Z,16.48
2022-09-02T03:53:27.240Z,16.47
2022-09-02T03:54:02.750Z,16.50
2022-09-02T03:54:35.019Z,16.57
2022-09-02T03:55:07.447Z,16.62
2022-09-02T03:55:40.425Z,16.59
2022-09-02T03:56:15.570Z,16.60
2022-09-02T03:56:47.759Z,16.49
2022-09-02T03:57:20.757Z,16.55
2022-09-02T03:57:53.514Z,16.60
2022-09-02T03:58:27.256Z,16.54
2022-09-02T03:59:00.012Z,16.50
2022-09-02T03:59:32.006Z,16.58
2022-09-02T04:00:08.077Z,16.65
2022-09-02T04:00:50.598Z,16.56
2022-09-02T04:01:24.931Z,16.61
2022-09-02T04:02:03.406Z,16.58
2022-09-02T04:02:35.718Z,16.57
2022-09-02T04:03:07.834Z,16.53
2022-09-02T04:03:39.846Z,16.54
2022-09-02T04:04:12.061Z,16.58
2022-09-02T04:04:44.595Z,16.52
2022-09-02T04:05:16.616Z,16.53
2022-09-02T04:05:52.375Z,16.45
2022-09-02T04:06:26.337Z,16.39
2022-09-02T04:07:05.221Z,16.34
2022-09-02T04:07:37.381Z,16.42
2022-09-02T04:08:09.295Z,16.50
2022-09-02T04:08:42.883Z,16.57
2022-09-02T04:09:15.089Z,16.56
2022-09-02T04:09:47.286Z,16.53
2022-09-02T04:10:21.960Z,16.50
2022-09-02T04:10:55.920Z,16.52
2022-09-02T04:11:28.281Z,16.52
2022-09-02T04:12:00.248Z,16.48
2022-09-02T04:12:32.375Z,16.40
2022-09-02T04:13:05.364Z,16.32
2022-09-02T04:13:37.467Z,16.39
2022-09-02T04:14:10.411Z,16.42
2022-09-02T04:14:42.499Z,16.47
2022-09-02T04:15:16.344Z,16.47
2022-09-02T04:15:49.414Z,16.45
2022-09-02T04:16:30.986Z,16.45
2022-09-02T04:17:04.297Z,16.50
2022-09-02T04:17:37.911Z,16.53
2022-09-02T04:18:10.758Z,16.51
2022-09-02T04:18:42.843Z,16.54
2022-09-02T04:19:15.548Z,16.54
2022-09-02T04:19:47.837Z,16.66
2022-09-02T04:20:19.864Z,16.61
2022-09-02T04:20:51.854Z,16.51
2022-09-02T04:21:28.152Z,16.59
2022-09-02T04:22:00.163Z,16.54
2022-09-02T04:22:32.724Z,16.53
2022-09-02T04:23:04.924Z,16.39
2022-09-02T04:23:38.226Z,16.53
2022-09-02T04:24:11.324Z,16.48
2022-09-02T04:24:43.424Z,16.50
2022-09-02T04:25:15.615Z,16.58
2022-09-02T04:25:48.380Z,16.54
2022-09-02T04:26:21.238Z,16.57
2022-09-02T04:26:55.121Z,16.54
2022-09-02T04:27:27.721Z,16.57
2022-09-02T04:28:00.537Z,16.54
2022-09-02T04:28:32.475Z,16.52
2022-09-02T04:29:04.670Z,16.57
2022-09-02T04:29:39.030Z,16.54
2022-09-02T04:30:16.390Z,16.52
2022-09-02T04:30:48.882Z,16.46
2022-09-02T04:31:22.739Z,16.57
2022-09-02T04:31:55.279Z,16.61
2022-09-02T04:32:27.573Z,16.52
2022-09-02T04:32:59.830Z,16.53
2022-09-02T04:33:31.845Z,16.61
2022-09-02T04:34:04.454Z,16.64
2022-09-02T04:34:36.409Z,16.61
2022-09-02T04:35:11.698Z,16.67
2022-09-02T04:35:46.177Z,16.65
2022-09-02T04:36:22.393Z,16.61
2022-09-02T04:36:56.647Z,16.69
2022-09-02T04:37:28.727Z,16.74
2022-09-02T04:38:03.003Z,16.65
2022-09-02T04:38:35.708Z,16.50
2022-09-02T04:39:09.360Z,16.53
2022-09-02T04:39:41.485Z,16.55
2022-09-02T04:40:15.890Z,16.60
2022-09-02T04:40:48.541Z,16.61
2022-09-02T04:41:25.261Z,16.59
2022-09-02T04:41:58.624Z,16.59
2022-09-02T04:42:31.131Z,16.53
2022-09-02T04:43:04.466Z,16.62
2022-09-02T04:43:38.608Z,16.58
2022-09-02T04:44:10.987Z,16.59
2022-09-02T04:44:43.561Z,16.61
2022-09-02T04:45:15.604Z,16.60
2022-09-02T04:45:47.641Z,16.53
2022-09-02T04:46:26.374Z,16.57
2022-09-02T04:47:06.792Z,16.63
2022-09-02T04:47:38.927Z,16.73
2022-09-02T04:48:12.464Z,16.70
2022-09-02T04:48:47.316Z,16.65
2022-09-02T04:49:20.133Z,16.65
2022-09-02T04:49:52.415Z,16.57
2022-09-02T04:50:24.503Z,16.63
2022-09-02T04:51:07.796Z,16.65
2022-09-02T04:51:40.287Z,16.59
2022-09-02T04:52:12.323Z,16.61
2022-09-02T04:52:44.413Z,16.62
2022-09-02T04:53:17.486Z,16.62
2022-09-02T04:53:50.891Z,16.62
2022-09-02T04:54:23.125Z,16.72
2022-09-02T04:54:55.173Z,16.80
2022-09-02T04:55:28.021Z,16.75
2022-09-02T04:56:01.062Z,16.62
2022-09-02T04:56:33.656Z,16.57
2022-09-02T04:57:05.794Z,16.69
2022-09-02T04:57:39.492Z,16.77
2022-09-02T04:58:11.556Z,16.78
2022-09-02T04:58:44.783Z,16.81
2022-09-02T04:59:16.812Z,16.80
2022-09-02T04:59:49.923Z,16.80
2022-09-02T05:00:22.267Z,16.84
2022-09-02T05:00:54.838Z,16.75
2022-09-02T05:01:32.695Z,16.75
2022-09-02T05:02:06.078Z,16.81
2022-09-02T05:02:38.585Z,16.88
2022-09-02T05:03:11.846Z,16.90
2022-09-02T05:03:45.978Z,16.82
2022-09-02T05:04:18.022Z,16.79
2022-09-02T05:04:50.248Z,16.80
2022-09-02T05:05:23.175Z,16.75
2022-09-02T05:06:08.456Z,16.83
2022-09-02T05:06:44.341Z,16.92
2022-09-02T05:07:18.665Z,16.98
2022-09-02T05:07:50.865Z,16.99
2022-09-02T05:08:23.989Z,17.02
2022-09-02T05:08:57.633Z,17.06
2022-09-02T05:09:31.379Z,17.07
2022-09-02T05:10:05.494Z,17.02
2022-09-02T05:10:40.376Z,16.97
2022-09-02T05:11:18.549Z,17.04
2022-09-02T05:11:52.070Z,17.07
2022-09-02T05:12:28.832Z,17.08
2022-09-02T05:13:01.253Z,17.14
2022-09-02T05:13:33.702Z,17.18
2022-09-02T05:14:07.152Z,17.14
2022-09-02T05:14:39.658Z,17.12
2022-09-02T05:15:12.741Z,17.07
2022-09-02T05:15:44.965Z,17.01
2022-09-02T05:16:24.104Z,16.93
2022-09-02T05:16:56.228Z,16.94
2022-09-02T05:17:31.960Z,16.94
2022-09-02T05:18:04.126Z,17.03
2022-09-02T05:18:37.646Z,17.08
2022-09-02T05:19:11.874Z,17.12
2022-09-02T05:19:45.915Z,17.06
2022-09-02T05:20:19.427Z,17.04
2022-09-02T05:20:51.582Z,17.04
2022-09-02T05:21:24.258Z,17.08
2022-09-02T05:21:59.200Z,17.08
2022-09-02T05:22:31.668Z,17.16
2022-09-02T05:23:04.230Z,17.13
2022-09-02T05:23:36.344Z,17.13
2022-09-02T05:24:08.563Z,17.11
2022-09-02T05:24:42.835Z,17.13
2022-09-02T05:25:16.414Z,17.19
2022-09-02T05:25:49.179Z,17.19
2022-09-02T05:26:22.709Z,17.17
2022-09-02T05:26:56.028Z,17.06
2022-09-02T05:27:28.669Z,17.00
2022-09-02T05:28:04.229Z,17.13
2022-09-02T05:28:36.988Z,17.15
2022-09-02T05:29:09.941Z,17.15
2022-09-02T05:29:45.330Z,17.19
2022-09-02T05:30:18.295Z,17.13
2022-09-02T05:30:50.453Z,17.13
2022-09-02T05:31:22.832Z,17.13
2022-09-02T05:31:54.907Z,17.08
2022-09-02T05:32:27.845Z,17.11
2022-09-02T05:33:00.416Z,17.19
2022-09-02T05:33:37.317Z,17.23
2022-09-02T05:34:09.986Z,17.28
2022-09-02T05:34:42.202Z,17.29
2022-09-02T05:35:14.198Z,17.27
2022-09-02T05:35:47.037Z,17.22
2022-09-02T05:36:22.954Z,17.22
2022-09-02T05:36:56.937Z,17.23
2022-09-02T05:37:30.990Z,17.22
2022-09-02T05:38:04.021Z,17.21
2022-09-02T05:38:36.596Z,17.15
2022-09-02T05:39:09.459Z,17.14
2022-09-02T05:39:42.641Z,17.07
2022-09-02T05:40:15.531Z,17.15
2022-09-02T05:40:47.847Z,17.28
2022-09-02T05:41:25.527Z,17.34
2022-09-02T05:41:58.291Z,17.42
2022-09-02T05:42:31.352Z,17.52
2022-09-02T05:43:03.768Z,17.48
2022-09-02T05:43:40.707Z,17.50
2022-09-02T05:44:13.409Z,17.43
2022-09-02T05:44:45.453Z,17.38
2022-09-02T05:45:19.450Z,17.42
2022-09-02T05:45:52.254Z,17.42
2022-09-02T05:46:26.419Z,17.37
2022-09-02T05:46:58.853Z,17.18
2022-09-02T05:47:31.012Z,17.22
2022-09-02T05:48:24.354Z,17.34
2022-09-02T05:49:07.734Z,17.34
2022-09-02T05:49:41.087Z,17.35
2022-09-02T05:50:15.029Z,17.42
2022-09-02T05:50:54.877Z,17.42
2022-09-02T05:51:31.632Z,17.43
2022-09-02T05:52:04.471Z,17.44
2022-09-02T05:52:38.030Z,17.53
2022-09-02T05:53:14.341Z,17.58
2022-09-02T05:53:47.498Z,17.65
2022-09-02T05:54:25.945Z,17.63
2022-09-02T05:55:00.513Z,17.64
2022-09-02T05:55:32.538Z,17.63
2022-09-02T05:56:05.652Z,17.65
2022-09-02T05:56:45.200Z,17.68
2022-09-02T05:57:18.825Z,17.72
2022-09-02T05:57:53.496Z,17.60
2022-09-02T05:58:27.213Z,17.43
2022-09-02T05:59:01.786Z,17.33
2022-09-02T05:59:38.789Z,17.34
2022-09-02T06:00:17.727Z,17.44
2022-09-02T06:00:51.905Z,17.51
2022-09-02T06:01:23.992Z,17.54
2022-09-02T06:01:57.664Z,17.53
2022-09-02T06:02:29.783Z,17.57
2022-09-02T06:03:01.892Z,17.54
2022-09-02T06:03:34.429Z,17.50
2022-09-02T06:04:07.087Z,17.58
2022-09-02T06:04:41.287Z,17.61
2022-09-02T06:05:14.062Z,17.66
2022-09-02T06:05:57.262Z,17.57
2022-09-02T06:06:30.409Z,17.47
2022-09-02T06:07:02.327Z,17.56
2022-09-02T06:07:36.646Z,17.55
2022-09-02T06:08:09.662Z,17.66
2022-09-02T06:08:43.521Z,17.68
2022-09-02T06:09:18.978Z,17.73
2022-09-02T06:09:52.521Z,17.78
2022-09-02T06:10:25.989Z,17.79
2022-09-02T06:11:01.165Z,17.66
2022-09-02T06:11:33.620Z,17.58
2022-09-02T06:12:05.939Z,17.64
2022-09-02T06:12:42.512Z,17.74
2022-09-02T06:13:15.932Z,17.71
2022-09-02T06:13:48.826Z,17.79
2022-09-02T06:14:27.310Z,17.86
2022-09-02T06:15:00.770Z,17.89
2022-09-02T06:15:32.861Z,17.80
2022-09-02T06:16:06.804Z,17.81
2022-09-02T06:16:40.542Z,17.87
2022-09-02T06:17:15.070Z,17.93
2022-09-02T06:17:47.820Z,17.93
2022-09-02T06:18:19.898Z,17.89
2022-09-02T06:18:53.763Z,17.91
2022-09-02T06:19:28.928Z,17.90
2022-09-02T06:20:02.191Z,17.94
2022-09-02T06:20:34.530Z,17.95
2022-09-02T06:21:07.141Z,17.95
2022-09-02T06:21:39.909Z,17.98
2022-09-02T06:22:12.794Z,17.96
2022-09-02T06:22:45.259Z,18.02
2022-09-02T06:23:17.631Z,18.07
2022-09-02T06:23:50.759Z,18.12
2022-09-02T06:24:23.426Z,18.12
2022-09-02T06:24:55.413Z,18.13
2022-09-02T06:25:28.235Z,18.23
2022-09-02T06:26:00.376Z,18.25
2022-09-02T06:26:32.364Z,18.18
2022-09-02T06:27:07.316Z,18.17
2022-09-02T06:27:40.013Z,18.26
2022-09-02T06:28:14.399Z,18.20
2022-09-02T06:28:47.902Z,18.17
2022-09-02T06:29:21.871Z,18.27
2022-09-02T06:29:53.874Z,18.26
2022-09-02T06:30:26.203Z,18.25
2022-09-02T06:30:58.571Z,18.17
2022-09-02T06:31:34.586Z,18.35
2022-09-02T06:32:07.337Z,18.35
2022-09-02T06:32:39.412Z,18.32
2022-09-02T06:33:12.372Z,18.30
2022-09-02T06:33:47.271Z,18.35
2022-09-02T06:34:23.466Z,18.33
2022-09-02T06:34:55.419Z,18.43
2022-09-02T06:35:27.555Z,18.40
2022-09-02T06:36:02.302Z,18.37
2022-09-02T06:36:34.280Z,18.25
2022-09-02T06:37:06.386Z,18.28
2022-09-02T06:37:42.111Z,18.21
2022-09-02T06:38:14.975Z,18.31
2022-09-02T06:38:49.407Z,18.35
2022-09-02T06:39:23.724Z,18.33
2022-09-02T06:39:56.007Z,18.37
2022-09-02T06:40:29.694Z,18.36
2022-09-02T06:41:01.880Z,18.34
2022-09-02T06:41:35.115Z,18.46
2022-09-02T06:42:07.833Z,18.58
2022-09-02T06:42:49.537Z,18.58
2022-09-02T06:43:24.941Z,18.65
2022-09-02T06:44:00.060Z,18.58
2022-09-02T06:44:32.686Z,18.49
2022-09-02T06:45:05.383Z,18.48
2022-09-02T06:45:42.491Z,18.62
2022-09-02T06:46:20.609Z,18.54
2022-09-02T06:46:57.587Z,18.58
2022-09-02T06:47:33.245Z,18.62
2022-09-02T06:48:07.557Z,18.68
2022-09-02T06:48:41.681Z,18.72
2022-09-02T06:49:16.349Z,18.83
2022-09-02T06:49:48.884Z,18.88
2022-09-02T06:50:23.430Z,18.90
2022-09-02T06:50:55.872Z,18.90
2022-09-02T06:51:47.933Z,18.96
2022-09-02T06:52:21.438Z,19.07
2022-09-02T06:52:53.975Z,19.14
2022-09-02T06:53:25.996Z,19.17
2022-09-02T06:54:00.728Z,19.07
2022-09-02T06:54:34.100Z,19.13
2022-09-02T06:55:10.968Z,19.19
2022-09-02T06:55:45.242Z,19.28
2022-09-02T06:56:17.831Z,19.26
2022-09-02T06:56:51.245Z,19.25
2022-09-02T06:57:24.690Z,19.27
2022-09-02T06:58:04.317Z,19.30
2022-09-02T06:58:37.032Z,19.34
2022-09-02T06:59:10.336Z,19.39
2022-09-02T06:59:47.093Z,19.29
2022-09-02T07:00:20.917Z,19.32
2022-09-02T07:00:52.909Z,19.41
2022-09-02T07:01:28.963Z,19.49
2022-09-02T07:02:01.288Z,19.52
2022-09-02T07:02:34.067Z,19.48
2022-09-02T07:03:25.053Z,19.47
2022-09-02T07:04:16.057Z,19.48
2022-09-02T07:05:06.820Z,19.50
2022-09-02T07:05:39.592Z,19.48
2022-09-02T07:06:12.720Z,19.32
2022-09-02T07:06:48.983Z,19.38
2022-09-02T07:07:21.106Z,19.35
2022-09-02T07:07:55.499Z,19.30
2022-09-02T07:08:27.468Z,19.28
2022-09-02T07:08:59.476Z,19.32
2022-09-02T07:09:31.691Z,19.36
2022-09-02T07:10:10.455Z,19.29
2022-09-02T07:10:42.744Z,19.19
2022-09-02T07:11:23.728Z,19.27
2022-09-02T07:11:55.999Z,19.10
2022-09-02T07:12:28.140Z,19.04
2022-09-02T07:13:00.698Z,19.10
2022-09-02T07:13:34.017Z,18.97
2022-09-02T07:14:06.865Z,19.07
2022-09-02T07:14:43.811Z,19.14
2022-09-02T07:15:16.202Z,19.16
2022-09-02T07:15:48.266Z,19.26
2022-09-02T07:16:26.979Z,19.31
2022-09-02T07:17:00.380Z,19.34
2022-09-02T07:17:33.657Z,19.28